Time;durP1;ratioP1;P1;durP2;ratioP2;P2;SDS_P1;SDS_P2;PMS_P1;PMS_P2;Temp;Humidity;BMP_temperature;BMP_pressure;BME280_temperature;BME280_humidity;BME280_pressure;Samples;Min_cycle;Max_cycle;Signal;HPM_P1;HPM_P2
2023/05/09 00:00:48;;;;;;;;;;;;;;;4.15;54.53;101283.34;4990278;28;19925;-74
2023/05/09 00:03:15;;;;;;;;;;;;;;;4.16;54.79;101278.75;4987016;28;19988;-75
2023/05/09 00:05:41;;;;;;;;;;;;;;;4.09;55.52;101284.09;4984725;28;19965;-74
2023/05/09 00:08:07;;;;;;;;;;;;;;;4.00;56.44;101288.00;4988701;28;20440;-74
2023/05/09 00:10:33;;;;;;;;;;;;;;;3.97;56.31;101290.03;4985617;28;19926;-74
2023/05/09 00:12:59;;;;;;;;;;;;;;;3.94;56.60;101289.59;4987027;28;20065;-73
2023/05/09 00:15:25;;;;;;;;;;;;;;;3.94;56.81;101290.44;4987799;28;19956;-73
2023/05/09 00:17:51;;;;;;;;;;;;;;;3.94;56.24;101293.13;4981975;28;19936;-74
2023/05/09 00:20:19;;;;;;;;;;;;;;;3.92;56.29;101300.59;4990945;28;19925;-73
2023/05/09 00:22:45;;;;;;;;;;;;;;;3.81;57.18;101293.84;4959998;28;19925;-72
2023/05/09 00:25:11;;;;;;;;;;;;;;;3.70;57.73;101294.34;4986506;28;19926;-74
2023/05/09 00:27:37;;;;;;;;;;;;;;;3.67;58.79;101294.75;4986293;28;19940;-73
2023/05/09 00:30:03;;;;;;;;;;;;;;;3.69;58.26;101292.69;4982391;28;20017;-73
2023/05/09 00:32:29;;;;;;;;;;;;;;;3.72;57.26;101292.28;4986196;28;20504;-73
2023/05/09 00:34:55;;;;;;;;;;;;;;;3.70;57.10;101283.53;4989977;28;20024;-75
2023/05/09 00:37:22;;;;;;;;;;;;;;;3.70;56.69;101294.34;4985990;28;19926;-74
2023/05/09 00:39:49;;;;;;;;;;;;;;;3.57;56.65;101275.28;4983843;28;19926;-74
2023/05/09 00:42:15;;;;;;;;;;;;;;;3.68;56.79;101286.44;4991489;28;19957;-74
2023/05/09 00:44:41;;;;;;;;;;;;;;;3.75;56.58;101285.66;4972859;28;19987;-75
2023/05/09 00:47:07;;;;;;;;;;;;;;;3.67;57.33;101289.34;4979261;28;20027;-74
2023/05/09 00:49:33;;;;;;;;;;;;;;;3.62;57.82;101291.78;4987088;28;20024;-74
2023/05/09 00:51:59;;;;;;;;;;;;;;;3.59;57.90;101294.84;4983957;28;20415;-75
2023/05/09 00:54:27;;;;;;;;;;;;;;;3.52;58.20;101294.81;4984672;28;20371;-74
2023/05/09 00:56:53;;;;;;;;;;;;;;;3.42;58.43;101300.50;4986595;28;19930;-74
2023/05/09 00:59:19;;;;;;;;;;;;;;;3.35;58.82;101305.00;4986387;28;19936;-74
2023/05/09 01:01:45;;;;;;;;;;;;;;;3.26;59.13;101302.41;4989449;28;20397;-75
2023/05/09 01:04:12;;;;;;;;;;;;;;;3.22;59.58;101298.41;4993610;28;19933;-74
2023/05/09 01:06:44;;;;;;;;;;;;;;;3.20;60.37;101305.88;4984959;28;19951;-75
2023/05/09 01:09:12;;;;;;;;;;;;;;;3.18;61.40;101298.97;4990459;28;19936;-75
2023/05/09 01:11:43;;;;;;;;;;;;;;;3.15;61.95;101299.34;4991210;28;20371;-75
2023/05/09 01:14:14;;;;;;;;;;;;;;;3.10;62.50;101297.19;4989145;28;19925;-75
2023/05/09 01:16:42;;;;;;;;;;;;;;;3.06;63.00;101290.50;4993971;28;20388;-75
2023/05/09 01:19:15;;;;;;;;;;;;;;;3.02;63.58;101294.63;4982802;28;20035;-75
2023/05/09 01:21:43;;;;;;;;;;;;;;;3.01;63.67;101293.75;4998360;28;19961;-75
2023/05/09 01:24:20;;;;;;;;;;;;;;;2.99;64.06;101290.41;4999375;28;19926;-75
2023/05/09 01:26:54;;;;;;;;;;;;;;;3.01;63.97;101290.25;4983709;28;20404;-74
2023/05/09 01:29:33;;;;;;;;;;;;;;;3.04;63.62;101293.38;5004935;28;19926;-74
2023/05/09 01:32:00;;;;;;;;;;;;;;;3.04;63.74;101289.84;4983280;28;19926;-75
2023/05/09 01:34:28;;;;;;;;;;;;;;;3.00;64.21;101296.69;4990542;28;19926;-74
2023/05/09 01:36:55;;;;;;;;;;;;;;;3.01;64.13;101298.34;4988752;28;19932;-74
2023/05/09 01:39:23;;;;;;;;;;;;;;;2.99;64.51;101298.53;4988179;28;20297;-74
2023/05/09 01:41:49;;;;;;;;;;;;;;;3.03;65.13;101302.53;4985640;28;19999;-75
2023/05/09 01:44:16;;;;;;;;;;;;;;;3.05;65.90;101305.91;4988706;28;19952;-75
2023/05/09 01:46:43;;;;;;;;;;;;;;;3.01;66.80;101307.28;4988592;28;19926;-74
2023/05/09 01:49:10;;;;;;;;;;;;;;;2.95;67.62;101298.06;4983154;28;20306;-74
2023/05/09 01:51:37;;;;;;;;;;;;;;;2.96;68.32;101298.91;4985475;28;20036;-75
2023/05/09 01:54:05;;;;;;;;;;;;;;;3.06;69.92;101301.31;4982821;28;19926;-74
2023/05/09 01:56:31;;;;;;;;;;;;;;;3.05;70.26;101305.91;4982167;28;19932;-74
2023/05/09 01:58:59;;;;;;;;;;;;;;;2.99;70.75;101301.22;4988970;28;19932;-74
2023/05/09 02:01:26;;;;;;;;;;;;;;;2.97;71.08;101301.44;4984951;28;19932;-76
2023/05/09 02:03:55;;;;;;;;;;;;;;;2.97;71.30;101309.53;4966766;28;19997;-75
2023/05/09 02:06:22;;;;;;;;;;;;;;;3.02;71.43;101305.44;4985652;28;19931;-75
2023/05/09 02:08:48;;;;;;;;;;;;;;;3.09;71.48;101309.03;4991392;28;19968;-73
2023/05/09 02:11:14;;;;;;;;;;;;;;;3.17;71.71;101306.25;4987299;28;19952;-75
2023/05/09 02:13:40;;;;;;;;;;;;;;;3.23;72.02;101310.88;4985776;28;19926;-75
2023/05/09 02:16:06;;;;;;;;;;;;;;;3.27;71.90;101311.34;4981841;28;20334;-75
2023/05/09 02:18:33;;;;;;;;;;;;;;;3.28;71.99;101307.63;4985787;28;19934;-74
2023/05/09 02:21:00;;;;;;;;;;;;;;;3.30;72.30;101304.75;4986727;28;19925;-74
2023/05/09 02:23:26;;;;;;;;;;;;;;;3.31;72.44;101303.72;4990831;28;19925;-75
2023/05/09 02:25:53;;;;;;;;;;;;;;;3.36;72.74;101304.81;4984130;28;20008;-74
2023/05/09 02:28:20;;;;;;;;;;;;;;;3.43;72.42;101304.06;4991930;28;19947;-74
2023/05/09 02:30:46;;;;;;;;;;;;;;;3.49;72.26;101306.84;4990613;28;19932;-74
2023/05/09 02:33:12;;;;;;;;;;;;;;;3.55;72.12;101306.06;4981731;28;19926;-75
2023/05/09 02:35:41;;;;;;;;;;;;;;;3.59;71.95;101314.63;4983586;28;20339;-75
2023/05/09 02:38:08;;;;;;;;;;;;;;;3.63;72.01;101307.00;4994843;28;19972;-75
2023/05/09 02:40:35;;;;;;;;;;;;;;;3.64;72.04;101312.19;4989175;28;19932;-75
2023/05/09 02:43:02;;;;;;;;;;;;;;;3.67;72.03;101310.97;4991057;28;19926;-75
2023/05/09 02:45:28;;;;;;;;;;;;;;;3.67;72.24;101303.72;4983894;28;19926;-74
2023/05/09 02:47:54;;;;;;;;;;;;;;;3.71;72.02;101317.66;4988362;28;19929;-75
2023/05/09 02:50:21;;;;;;;;;;;;;;;3.74;71.96;101314.56;4983139;28;19926;-75
2023/05/09 02:52:47;;;;;;;;;;;;;;;3.79;71.32;101314.00;4985226;28;19925;-74
2023/05/09 02:55:14;;;;;;;;;;;;;;;3.85;71.68;101317.81;4984579;28;19964;-74
2023/05/09 02:57:41;;;;;;;;;;;;;;;3.89;71.70;101317.25;4974740;28;20486;-74
2023/05/09 03:00:08;;;;;;;;;;;;;;;3.91;71.89;101320.59;4988385;28;20445;-75
2023/05/09 03:02:35;;;;;;;;;;;;;;;3.96;72.14;101317.31;4989859;28;19933;-75
2023/05/09 03:05:02;;;;;;;;;;;;;;;4.02;71.88;101321.94;4991265;28;20308;-75
2023/05/09 03:07:31;;;;;;;;;;;;;;;4.09;71.24;101322.84;4976322;28;19926;-75
2023/05/09 03:09:58;;;;;;;;;;;;;;;4.16;71.04;101324.75;4991660;28;20032;-76
2023/05/09 03:12:25;;;;;;;;;;;;;;;4.23;71.19;101320.25;4970685;28;20380;-75
2023/05/09 03:14:54;;;;;;;;;;;;;;;4.32;71.01;101326.38;4993464;28;19932;-75
2023/05/09 03:17:20;;;;;;;;;;;;;;;4.42;70.92;101328.75;4988161;28;19929;-75
2023/05/09 03:19:47;;;;;;;;;;;;;;;4.49;70.90;101313.38;4992521;28;20314;-74
2023/05/09 03:22:13;;;;;;;;;;;;;;;4.56;70.37;101327.81;4993867;28;19925;-74
2023/05/09 03:24:46;;;;;;;;;;;;;;;4.63;69.84;101323.25;4988663;28;19957;-76
2023/05/09 03:27:11;;;;;;;;;;;;;;;4.68;68.99;101326.25;4969220;28;19926;-76
2023/05/09 03:29:39;;;;;;;;;;;;;;;4.68;68.09;101315.41;4972463;28;19932;-75
2023/05/09 03:32:05;;;;;;;;;;;;;;;4.83;67.21;101326.09;4994299;28;19925;-75
2023/05/09 03:34:31;;;;;;;;;;;;;;;4.93;66.44;101319.50;4984916;28;19957;-75
2023/05/09 03:36:58;;;;;;;;;;;;;;;5.00;65.63;101325.78;4989029;28;19932;-75
2023/05/09 03:39:24;;;;;;;;;;;;;;;5.08;64.64;101324.78;4972500;28;19926;-74
2023/05/09 03:41:55;;;;;;;;;;;;;;;5.17;64.01;101333.59;4984581;28;19925;-74
2023/05/09 03:44:21;;;;;;;;;;;;;;;5.25;62.96;101326.13;4990514;28;19972;-76
2023/05/09 03:46:49;;;;;;;;;;;;;;;5.33;62.44;101327.00;4986893;28;19960;-76
2023/05/09 03:49:15;;;;;;;;;;;;;;;5.41;61.62;101329.50;4988014;28;19956;-76
2023/05/09 03:51:42;;;;;;;;;;;;;;;5.45;60.81;101317.22;5002395;28;20061;-75
2023/05/09 03:54:12;;;;;;;;;;;;;;;5.61;60.14;101326.88;4991403;28;20126;-76
2023/05/09 03:56:39;;;;;;;;;;;;;;;5.71;59.39;101329.19;4992662;28;19965;-76
2023/05/09 03:59:05;;;;;;;;;;;;;;;5.79;58.97;101330.88;4985484;28;19964;-75
2023/05/09 04:01:32;;;;;;;;;;;;;;;5.87;58.42;101338.84;4985123;28;20492;-75
2023/05/09 04:04:01;;;;;;;;;;;;;;;5.96;57.76;101339.50;4986964;28;19932;-75
2023/05/09 04:06:32;;;;;;;;;;;;;;;6.04;57.14;101336.59;4989682;28;19948;-76
2023/05/09 04:08:58;;;;;;;;;;;;;;;6.15;56.52;101339.75;4984593;28;20356;-76
2023/05/09 04:11:24;;;;;;;;;;;;;;;6.23;55.91;101336.81;4988502;28;19932;-75
2023/05/09 04:13:50;;;;;;;;;;;;;;;6.33;55.36;101339.13;4990204;28;19931;-74
2023/05/09 04:16:24;;;;;;;;;;;;;;;6.44;54.51;101341.22;4986434;28;19925;-74
2023/05/09 04:18:50;;;;;;;;;;;;;;;6.46;53.86;101332.84;4990288;28;19980;-75
2023/05/09 04:21:17;;;;;;;;;;;;;;;6.64;53.25;101345.81;4986771;28;19932;-74
2023/05/09 04:23:47;;;;;;;;;;;;;;;6.75;52.83;101341.63;4974336;28;20026;-73
2023/05/09 04:26:16;;;;;;;;;;;;;;;6.83;51.77;101343.28;4973210;28;20036;-74
2023/05/09 04:28:44;;;;;;;;;;;;;;;6.94;51.25;101335.28;4972214;28;20037;-74
2023/05/09 04:31:13;;;;;;;;;;;;;;;7.04;50.97;101343.00;4985783;28;19962;-74
2023/05/09 04:33:41;;;;;;;;;;;;;;;7.13;50.52;101342.78;4982176;28;19926;-73
2023/05/09 04:36:08;;;;;;;;;;;;;;;7.21;49.72;101345.25;4991171;28;19933;-73
2023/05/09 04:38:35;;;;;;;;;;;;;;;7.29;49.12;101341.47;4973266;28;19926;-74
2023/05/09 04:41:04;;;;;;;;;;;;;;;7.37;48.35;101346.69;4984308;28;19936;-73
2023/05/09 04:43:31;;;;;;;;;;;;;;;7.47;48.13;101343.50;4992001;28;19926;-74
2023/05/09 04:45:57;;;;;;;;;;;;;;;7.55;47.74;101343.22;4986169;28;20408;-73
2023/05/09 04:48:24;;;;;;;;;;;;;;;7.61;47.07;101341.53;4994689;28;20012;-73
2023/05/09 04:50:50;;;;;;;;;;;;;;;7.66;46.67;101339.84;4992059;28;20400;-74
2023/05/09 04:53:15;;;;;;;;;;;;;;;7.75;46.20;101340.41;4987508;28;19934;-75
2023/05/09 04:55:43;;;;;;;;;;;;;;;7.82;45.80;101340.38;4991008;28;19925;-75
2023/05/09 04:58:09;;;;;;;;;;;;;;;7.89;45.16;101348.50;4991329;28;20413;-75
2023/05/09 05:00:35;;;;;;;;;;;;;;;7.98;44.65;101340.91;4990427;28;19926;-75
2023/05/09 05:03:01;;;;;;;;;;;;;;;8.06;44.35;101346.09;4990529;28;20313;-74
2023/05/09 05:05:29;;;;;;;;;;;;;;;8.13;44.04;101346.06;4972202;28;20063;-75
2023/05/09 05:07:55;;;;;;;;;;;;;;;8.19;43.72;101350.63;4991288;28;20459;-75
2023/05/09 05:10:26;;;;;;;;;;;;;;;8.30;42.12;101349.06;4991710;28;20275;-76
2023/05/09 05:13:02;;;;;;;;;;;;;;;8.44;41.34;101349.81;4986435;28;19926;-76
2023/05/09 05:15:28;;;;;;;;;;;;;;;8.50;40.80;101351.66;4985020;28;19932;-75
2023/05/09 05:17:54;;;;;;;;;;;;;;;8.55;40.77;101351.00;4990822;28;19932;-75
2023/05/09 05:20:24;;;;;;;;;;;;;;;8.65;40.30;101349.44;4986318;28;19945;-75
2023/05/09 05:22:50;;;;;;;;;;;;;;;8.72;39.83;101345.78;4991353;28;19929;-75
2023/05/09 05:25:17;;;;;;;;;;;;;;;8.73;39.38;101351.03;4983120;28;19926;-75
2023/05/09 05:27:45;;;;;;;;;;;;;;;8.80;39.24;101348.25;4986303;28;19980;-74
2023/05/09 05:30:20;;;;;;;;;;;;;;;8.84;39.34;101349.44;4986985;28;20020;-75
2023/05/09 05:32:49;;;;;;;;;;;;;;;8.91;38.77;101349.38;4975205;28;20036;-75
2023/05/09 05:35:18;;;;;;;;;;;;;;;8.94;38.78;101341.59;4988482;28;19933;-75
2023/05/09 05:37:44;;;;;;;;;;;;;;;8.98;38.83;101349.31;4994897;28;19936;-75
2023/05/09 05:40:10;;;;;;;;;;;;;;;9.01;38.55;101340.66;4957172;28;19926;-75
2023/05/09 05:42:40;;;;;;;;;;;;;;;8.99;38.19;101340.91;4964716;28;19962;-74
2023/05/09 05:45:07;;;;;;;;;;;;;;;9.00;37.91;101337.13;4985417;28;19926;-73
2023/05/09 05:47:42;;;;;;;;;;;;;;;9.03;37.04;101333.94;4983596;28;20443;-75
2023/05/09 05:50:10;;;;;;;;;;;;;;;9.11;36.99;101331.97;4987896;28;20016;-75
2023/05/09 05:52:37;;;;;;;;;;;;;;;9.18;36.99;101324.53;4988619;28;20196;-76
2023/05/09 05:55:03;;;;;;;;;;;;;;;9.21;36.68;101330.38;4948063;28;20017;-75
2023/05/09 05:57:29;;;;;;;;;;;;;;;9.24;36.95;101336.44;4981628;28;20016;-75
2023/05/09 05:59:57;;;;;;;;;;;;;;;9.27;36.92;101335.97;4983868;28;19926;-75
2023/05/09 06:02:23;;;;;;;;;;;;;;;9.39;36.24;101334.16;4970063;28;19973;-74
2023/05/09 06:04:51;;;;;;;;;;;;;;;9.57;35.42;101332.47;4989664;28;19964;-74
2023/05/09 06:07:17;;;;;;;;;;;;;;;9.73;35.13;101322.78;4983292;28;19933;-74
2023/05/09 06:09:45;;;;;;;;;;;;;;;9.96;34.68;101332.13;4990635;28;19932;-74
2023/05/09 06:12:15;;;;;;;;;;;;;;;10.22;34.14;101328.16;4982603;28;19925;-74
2023/05/09 06:14:41;;;;;;;;;;;;;;;10.39;32.89;101328.28;4966454;28;19976;-74
2023/05/09 06:17:07;;;;;;;;;;;;;;;10.58;32.79;101322.75;4986717;28;19957;-74
2023/05/09 06:19:34;;;;;;;;;;;;;;;10.78;32.77;101319.66;4979846;28;20028;-74
2023/05/09 06:22:02;;;;;;;;;;;;;;;10.88;31.85;101319.88;4980238;28;21258;-74
2023/05/09 06:24:28;;;;;;;;;;;;;;;10.92;31.55;101321.03;4980405;28;20032;-74
2023/05/09 06:26:54;;;;;;;;;;;;;;;11.04;31.27;101315.56;4983623;28;20385;-74
2023/05/09 06:29:20;;;;;;;;;;;;;;;11.20;31.05;101313.97;4980925;28;19936;-74
2023/05/09 06:31:46;;;;;;;;;;;;;;;11.31;30.93;101309.53;4988738;28;19925;-74
2023/05/09 06:34:12;;;;;;;;;;;;;;;11.38;31.01;101320.34;4984378;28;19949;-74
2023/05/09 06:36:37;;;;;;;;;;;;;;;11.46;31.01;101314.50;4984795;28;20278;-75
2023/05/09 06:39:05;;;;;;;;;;;;;;;11.66;30.75;101312.41;4984365;28;19925;-75
2023/05/09 06:41:31;;;;;;;;;;;;;;;11.82;29.73;101311.59;4988401;28;20400;-76
2023/05/09 06:43:57;;;;;;;;;;;;;;;11.92;29.51;101309.03;4973780;28;19933;-76
2023/05/09 06:46:23;;;;;;;;;;;;;;;11.72;29.28;101306.78;4991525;28;19926;-75
2023/05/09 06:48:49;;;;;;;;;;;;;;;11.14;29.59;101309.47;4983846;28;20442;-75
2023/05/09 06:51:15;;;;;;;;;;;;;;;10.75;30.34;101304.53;4983656;28;20301;-73
2023/05/09 06:53:41;;;;;;;;;;;;;;;10.83;30.36;101295.13;4985537;28;19932;-73
2023/05/09 06:56:08;;;;;;;;;;;;;;;11.10;29.85;101291.88;4988197;28;19934;-74
2023/05/09 06:58:35;;;;;;;;;;;;;;;11.57;29.23;101292.78;4989473;28;20396;-74
2023/05/09 07:01:01;;;;;;;;;;;;;;;12.05;28.63;101290.63;4988268;28;19925;-74
2023/05/09 07:03:27;;;;;;;;;;;;;;;12.32;28.08;101290.81;4967377;28;20446;-74
2023/05/09 07:05:55;;;;;;;;;;;;;;;12.55;27.66;101286.22;4965313;28;20460;-74
2023/05/09 07:08:21;;;;;;;;;;;;;;;12.71;26.89;101290.00;5004671;28;20360;-74
2023/05/09 07:10:47;;;;;;;;;;;;;;;12.79;26.61;101274.19;4980627;28;19926;-74
2023/05/09 07:13:14;;;;;;;;;;;;;;;13.07;26.63;101278.66;4986256;28;19979;-74
2023/05/09 07:15:40;;;;;;;;;;;;;;;13.30;26.39;101274.00;4982293;28;20440;-74
2023/05/09 07:18:06;;;;;;;;;;;;;;;12.99;26.53;101279.13;4982089;28;20380;-73
2023/05/09 07:20:32;;;;;;;;;;;;;;;12.53;26.89;101285.66;4983684;28;19961;-73
2023/05/09 07:22:58;;;;;;;;;;;;;;;12.07;27.21;101271.22;4985508;28;20400;-75
2023/05/09 07:25:24;;;;;;;;;;;;;;;11.62;27.86;101276.44;4983070;28;19932;-75
2023/05/09 07:27:50;;;;;;;;;;;;;;;11.40;28.53;101279.03;4986736;28;20380;-75
2023/05/09 07:30:17;;;;;;;;;;;;;;;11.26;28.65;101278.50;4988315;28;19926;-75
2023/05/09 07:32:43;;;;;;;;;;;;;;;11.19;28.76;101273.16;4994072;28;19936;-74
2023/05/09 07:35:09;;;;;;;;;;;;;;;11.17;29.06;101276.13;4991110;28;19925;-74
2023/05/09 07:37:36;;;;;;;;;;;;;;;11.29;28.90;101269.78;4985365;28;19932;-74
2023/05/09 07:40:02;;;;;;;;;;;;;;;11.32;28.89;101269.31;4966394;28;19953;-74
2023/05/09 07:42:31;;;;;;;;;;;;;;;11.43;28.60;101265.69;4990426;28;20536;-73
2023/05/09 07:44:58;;;;;;;;;;;;;;;11.52;28.52;101271.59;4969730;28;20023;-74
2023/05/09 07:47:25;;;;;;;;;;;;;;;11.59;28.40;101255.03;4986115;28;20467;-73
2023/05/09 07:49:51;;;;;;;;;;;;;;;11.62;28.14;101257.25;4967661;28;20474;-73
2023/05/09 07:52:17;;;;;;;;;;;;;;;12.15;27.58;101252.44;4990909;28;19926;-74
2023/05/09 07:54:44;;;;;;;;;;;;;;;13.19;26.17;101251.09;4990148;28;19988;-74
2023/05/09 07:57:10;;;;;;;;;;;;;;;14.00;25.11;101254.09;4981843;28;19973;-76
2023/05/09 07:59:36;;;;;;;;;;;;;;;13.99;25.17;101247.75;4988721;28;19925;-75
2023/05/09 08:02:03;;;;;;;;;;;;;;;13.59;25.29;101247.13;4963838;28;19973;-75
2023/05/09 08:04:30;;;;;;;;;;;;;;;13.30;25.70;101239.13;5000426;28;19930;-75
2023/05/09 08:06:56;;;;;;;;;;;;;;;13.19;25.78;101246.41;4989216;28;19926;-75
2023/05/09 08:09:22;;;;;;;;;;;;;;;12.98;26.15;101239.84;4974634;28;20336;-75
2023/05/09 08:11:48;;;;;;;;;;;;;;;12.79;26.32;101244.00;4989670;28;19932;-74
2023/05/09 08:14:14;;;;;;;;;;;;;;;12.81;26.39;101234.44;4982917;28;19925;-74
2023/05/09 08:16:42;;;;;;;;;;;;;;;12.88;26.13;101229.59;4988371;28;19933;-74
2023/05/09 08:19:08;;;;;;;;;;;;;;;12.91;26.27;101229.06;4988294;28;20342;-74
2023/05/09 08:21:35;;;;;;;;;;;;;;;13.03;26.11;101233.59;4988434;28;19930;-75
2023/05/09 08:24:06;;;;;;;;;;;;;;;13.88;25.29;101229.53;4992663;28;19930;-74
2023/05/09 08:26:32;;;;;;;;;;;;;;;15.20;23.55;101200.53;4986179;28;19932;-75
2023/05/09 08:28:59;;;;;;;;;;;;;;;17.03;21.81;101214.69;4976671;28;20088;-74
2023/05/09 08:31:25;;;;;;;;;;;;;;;18.40;20.14;101215.03;4988128;28;20408;-74
2023/05/09 08:33:51;;;;;;;;;;;;;;;19.28;19.50;101215.91;4985177;28;19926;-74
2023/05/09 08:36:17;;;;;;;;;;;;;;;19.92;18.61;101207.16;4984057;28;19926;-76
2023/05/09 08:38:45;;;;;;;;;;;;;;;20.33;18.28;101211.13;4988645;28;19929;-76
2023/05/09 08:41:11;;;;;;;;;;;;;;;21.04;17.76;101200.84;4967724;28;19957;-76
2023/05/09 08:43:39;;;;;;;;;;;;;;;21.72;16.77;101200.94;4990790;28;19925;-75
2023/05/09 08:46:07;;;;;;;;;;;;;;;22.04;16.08;101187.84;4985323;28;19931;-76
2023/05/09 08:48:36;;;;;;;;;;;;;;;22.34;16.17;101192.94;4983880;28;19936;-75
2023/05/09 08:51:02;;;;;;;;;;;;;;;22.23;15.94;101184.84;4987895;28;19976;-76
2023/05/09 08:53:28;;;;;;;;;;;;;;;21.52;16.78;101189.16;5002778;28;19932;-75
2023/05/09 08:56:00;;;;;;;;;;;;;;;20.19;17.72;101186.13;4988296;28;20036;-74
2023/05/09 08:58:26;;;;;;;;;;;;;;;18.99;18.84;101186.38;4983721;28;19925;-75
2023/05/09 09:00:52;;;;;;;;;;;;;;;18.06;19.53;101192.94;4975503;28;19955;-75
2023/05/09 09:03:18;;;;;;;;;;;;;;;18.33;19.47;101181.31;4986651;28;20024;-75
2023/05/09 09:05:46;;;;;;;;;;;;;;;18.28;19.29;101182.22;4984469;28;20065;-74
2023/05/09 09:08:12;;;;;;;;;;;;;;;17.77;19.59;101186.28;4982835;28;20013;-74
2023/05/09 09:10:39;;;;;;;;;;;;;;;17.34;20.33;101175.00;4999992;28;20036;-74
2023/05/09 09:13:07;;;;;;;;;;;;;;;17.13;20.72;101175.13;4984039;28;20401;-73
2023/05/09 09:15:34;;;;;;;;;;;;;;;16.70;20.82;101179.19;4984089;28;19972;-74
2023/05/09 09:18:04;;;;;;;;;;;;;;;16.53;20.98;101175.94;4985258;28;19944;-74
2023/05/09 09:20:33;;;;;;;;;;;;;;;16.35;21.18;101180.13;4987080;28;20247;-73
2023/05/09 09:23:03;;;;;;;;;;;;;;;16.24;21.19;101173.81;4987901;28;19943;-74
2023/05/09 09:25:29;;;;;;;;;;;;;;;16.56;21.12;101167.94;4639316;28;9999781;-74
2023/05/09 09:27:54;;;;;;;;;;;;;;;17.20;20.52;101170.09;4983696;28;19925;-73
2023/05/09 09:30:26;;;;;;;;;;;;;;;17.41;20.38;101161.69;4977343;28;20542;-74
2023/05/09 09:32:52;;;;;;;;;;;;;;;18.09;19.77;101161.91;4979996;28;19933;-73
2023/05/09 09:35:19;;;;;;;;;;;;;;;20.21;18.03;101161.66;4982283;28;20451;-73
2023/05/09 09:37:44;;;;;;;;;;;;;;;21.65;16.80;101159.63;4979390;28;20043;-73
2023/05/09 09:40:11;;;;;;;;;;;;;;;22.65;15.98;101148.28;4982440;28;20044;-75
2023/05/09 09:42:41;;;;;;;;;;;;;;;23.62;14.95;101150.28;4976867;28;19940;-75
2023/05/09 09:45:15;;;;;;;;;;;;;;;24.17;14.16;101147.88;4985700;28;19925;-73
2023/05/09 09:47:45;;;;;;;;;;;;;;;24.25;14.39;101144.22;4988463;28;19930;-75
2023/05/09 09:50:12;;;;;;;;;;;;;;;24.24;14.24;101138.97;4964756;28;19926;-74
2023/05/09 09:52:43;;;;;;;;;;;;;;;23.70;14.18;101137.47;4985543;28;19925;-74
2023/05/09 09:55:08;;;;;;;;;;;;;;;23.37;14.57;101136.88;4982914;28;19925;-74
2023/05/09 09:57:38;;;;;;;;;;;;;;;22.10;15.33;101144.81;4982451;28;19925;-74
2023/05/09 10:00:05;;;;;;;;;;;;;;;20.77;16.20;101152.47;5005845;28;19948;-75
2023/05/09 10:02:32;;;;;;;;;;;;;;;19.54;16.81;101143.41;4989456;28;19925;-75
2023/05/09 10:05:06;;;;;;;;;;;;;;;19.48;17.11;101139.88;4976177;28;20522;-75
2023/05/09 10:07:33;;;;;;;;;;;;;;;21.05;16.25;101131.00;4985426;28;19940;-73
2023/05/09 10:09:59;;;;;;;;;;;;;;;21.11;16.05;101131.72;4979447;28;19970;-75
2023/05/09 10:12:25;;;;;;;;;;;;;;;19.94;16.70;101129.16;4983876;28;19930;-75
2023/05/09 10:14:52;;;;;;;;;;;;;;;19.10;17.35;101137.16;4979522;28;19961;-75
2023/05/09 10:17:20;;;;;;;;;;;;;;;18.49;18.08;101134.91;4977988;28;19925;-74
2023/05/09 10:19:46;;;;;;;;;;;;;;;18.00;18.40;101129.34;4986260;28;19965;-75
2023/05/09 10:22:15;;;;;;;;;;;;;;;17.83;18.23;101128.97;4985362;28;19925;-74
2023/05/09 10:24:45;;;;;;;;;;;;;;;17.58;18.61;101128.91;4980688;28;19926;-74
2023/05/09 10:27:12;;;;;;;;;;;;;;;17.44;18.31;101128.75;4978353;28;20447;-74
2023/05/09 10:29:40;;;;;;;;;;;;;;;17.23;18.68;101117.00;4980441;28;20169;-75
2023/05/09 10:32:10;;;;;;;;;;;;;;;16.84;19.09;101129.66;4996626;28;19933;-75
2023/05/09 10:34:38;;;;;;;;;;;;;;;16.56;19.51;101129.28;4999962;28;20017;-74
2023/05/09 10:37:04;;;;;;;;;;;;;;;17.04;19.53;101122.41;4984662;28;19929;-74
2023/05/09 10:39:31;;;;;;;;;;;;;;;17.00;19.29;101124.91;4976986;28;19930;-74
2023/05/09 10:41:58;;;;;;;;;;;;;;;16.88;19.40;101129.94;5001655;28;20387;-75
2023/05/09 10:44:24;;;;;;;;;;;;;;;16.83;19.45;101122.50;4982107;28;19993;-75
2023/05/09 10:46:50;;;;;;;;;;;;;;;16.59;19.79;101117.66;4978700;28;19925;-75
2023/05/09 10:49:17;;;;;;;;;;;;;;;16.60;19.87;101121.22;4977566;28;20436;-75
2023/05/09 10:51:43;;;;;;;;;;;;;;;16.71;19.61;101120.09;4979392;28;19926;-76
2023/05/09 10:54:12;;;;;;;;;;;;;;;16.89;19.17;101111.44;4983511;28;20337;-75
2023/05/09 10:56:40;;;;;;;;;;;;;;;17.65;18.67;101100.09;4989978;28;19925;-74
2023/05/09 10:59:25;;;;;;;;;;;;;;;19.60;17.30;101100.56;4987846;28;19947;-75
2023/05/09 11:01:59;;;;;;;;;;;;;;;21.56;15.56;101093.91;4981806;28;20020;-76
2023/05/09 11:04:25;;;;;;;;;;;;;;;23.58;14.34;101085.13;4991462;28;19969;-76
2023/05/09 11:06:52;;;;;;;;;;;;;;;24.28;13.31;101092.44;4967681;28;19960;-76
2023/05/09 11:09:28;;;;;;;;;;;;;;;24.13;13.41;101091.84;4984414;28;20348;-75
2023/05/09 11:11:56;;;;;;;;;;;;;;;24.31;13.21;101083.38;4977628;28;19929;-74
2023/05/09 11:14:29;;;;;;;;;;;;;;;25.03;12.94;101068.56;4979730;28;19926;-74
2023/05/09 11:16:59;;;;;;;;;;;;;;;26.20;12.13;101065.78;4981040;28;19925;-74
2023/05/09 11:19:35;;;;;;;;;;;;;;;26.53;12.13;101063.97;4978151;28;19953;-74
2023/05/09 11:22:10;;;;;;;;;;;;;;;26.50;12.03;101064.69;4987342;28;19926;-75
2023/05/09 11:24:36;;;;;;;;;;;;;;;25.89;12.00;101058.75;5010168;28;19925;-76
2023/05/09 11:27:14;;;;;;;;;;;;;;;25.85;12.38;101064.25;4961337;28;19925;-75
2023/05/09 11:29:43;;;;;;;;;;;;;;;26.11;11.74;101053.84;4988056;28;20408;-74
2023/05/09 11:32:12;;;;;;;;;;;;;;;26.03;11.74;101044.41;4995084;28;19932;-74
2023/05/09 11:34:39;;;;;;;;;;;;;;;26.31;11.66;101049.31;4990632;28;19926;-74
2023/05/09 11:37:08;;;;;;;;;;;;;;;27.22;11.29;101040.72;4990203;28;19947;-74
2023/05/09 11:39:35;;;;;;;;;;;;;;;27.36;10.84;101048.72;4986638;28;19977;-74
2023/05/09 11:42:03;;;;;;;;;;;;;;;27.43;10.84;101040.47;4986315;28;20005;-74
2023/05/09 11:44:32;;;;;;;;;;;;;;;28.41;10.59;101035.28;4984777;28;19926;-75
2023/05/09 11:46:57;;;;;;;;;;;;;;;28.94;10.10;101035.97;4983013;28;20019;-75
2023/05/09 11:49:23;;;;;;;;;;;;;;;29.74;9.81;101026.16;4982452;28;20026;-75
2023/05/09 11:51:50;;;;;;;;;;;;;;;30.27;9.49;101026.22;4988024;28;19948;-76
2023/05/09 11:54:18;;;;;;;;;;;;;;;29.80;9.51;101028.28;4986787;28;20025;-75
2023/05/09 11:56:44;;;;;;;;;;;;;;;28.00;10.52;101021.47;4989151;28;19946;-75
2023/05/09 11:59:13;;;;;;;;;;;;;;;25.55;11.91;101022.44;4990551;28;19972;-75
2023/05/09 12:01:41;;;;;;;;;;;;;;;23.51;13.06;101022.28;4628012;28;9999595;-75
2023/05/09 12:04:07;;;;;;;;;;;;;;;22.01;14.36;101031.75;5000429;28;20463;-75
2023/05/09 12:06:33;;;;;;;;;;;;;;;21.05;15.11;101021.78;4985583;28;19937;-75
2023/05/09 12:08:59;;;;;;;;;;;;;;;20.37;15.57;101020.56;4984573;28;19925;-75
2023/05/09 12:11:28;;;;;;;;;;;;;;;19.74;16.07;101027.66;4984155;28;20283;-76
2023/05/09 12:13:54;;;;;;;;;;;;;;;19.30;16.67;101019.56;4978286;28;19929;-75
2023/05/09 12:16:20;;;;;;;;;;;;;;;19.05;17.03;101018.06;4977464;28;19976;-75
2023/05/09 12:18:49;;;;;;;;;;;;;;;18.88;17.16;101015.81;4976120;28;19988;-75
2023/05/09 12:21:15;;;;;;;;;;;;;;;18.56;17.34;101013.50;4956757;28;19925;-75
2023/05/09 12:23:41;;;;;;;;;;;;;;;18.46;17.30;101015.59;4978481;28;19933;-75
2023/05/09 12:26:07;;;;;;;;;;;;;;;18.35;17.52;101010.22;4966921;28;20401;-75
2023/05/09 12:28:33;;;;;;;;;;;;;;;18.45;17.19;101000.94;4982365;28;19933;-75
2023/05/09 12:30:59;;;;;;;;;;;;;;;18.32;17.29;100996.97;4999397;28;19926;-75
2023/05/09 12:33:25;;;;;;;;;;;;;;;18.94;17.14;101003.53;4983003;28;19938;-75
2023/05/09 12:36:05;;;;;;;;;;;;;;;20.25;16.20;100998.84;4969138;28;19948;-75
2023/05/09 12:38:31;;;;;;;;;;;;;;;19.83;16.54;100998.06;4981559;28;19929;-74
2023/05/09 12:41:00;;;;;;;;;;;;;;;18.96;16.85;100993.78;4988074;28;20365;-74